Time;durP1;ratioP1;P1;durP2;ratioP2;P2;SDS_P1;SDS_P2;PMS_P1;PMS_P2;Temp;Humidity;BMP_temperature;BMP_pressure;BME280_temperature;BME280_humidity;BME280_pressure;Samples;Min_cycle;Max_cycle;Signal;HPM_P1;HPM_P2
2020/12/11 00:00:35;;;;;;;2.72;2.28;;;21.10;39.20;;;;;;5015378;28;20068;-48
2020/12/11 00:03:01;;;;;;;2.30;2.10;;;21.10;39.20;;;;;;5024747;28;20033;-49
2020/12/11 00:05:27;;;;;;;3.00;1.80;;;21.10;39.20;;;;;;5023239;28;20041;-49
2020/12/11 00:07:52;;;;;;;3.03;1.85;;;21.00;39.10;;;;;;5026792;28;20069;-49
2020/12/11 00:10:18;;;;;;;1.98;1.58;;;21.00;39.10;;;;;;5027108;28;20037;-49
2020/12/11 00:12:48;;;;;;;2.22;2.03;;;21.00;39.10;;;;;;5013155;28;20041;-50
2020/12/11 00:15:14;;;;;;;2.22;2.03;;;21.00;39.10;;;;;;5022043;28;20089;-47
2020/12/11 00:17:39;;;;;;;2.45;2.25;;;21.00;39.10;;;;;;5028562;28;20037;-49
2020/12/11 00:20:06;;;;;;;1.90;1.55;;;20.90;39.10;;;;;;5014749;28;20114;-47
2020/12/11 00:22:32;;;;;;;2.25;2.05;;;21.00;39.20;;;;;;5013223;28;20037;-47
2020/12/11 00:24:57;;;;;;;3.20;1.85;;;20.90;39.10;;;;;;5020685;28;20474;-49
2020/12/11 00:27:23;;;;;;;2.95;2.22;;;20.90;39.10;;;;;;5010217;28;20034;-49
2020/12/11 00:29:48;;;;;;;3.00;2.13;;;20.90;39.10;;;;;;5021829;28;20059;-50
2020/12/11 00:32:14;;;;;;;2.55;1.85;;;20.90;39.10;;;;;;5010665;28;20380;-48
2020/12/11 00:34:39;;;;;;;3.38;1.63;;;20.80;39.10;;;;;;5017788;28;20025;-49
2020/12/11 00:37:05;;;;;;;2.42;2.20;;;20.80;39.20;;;;;;5024295;28;20076;-48
2020/12/11 00:39:31;;;;;;;2.10;1.55;;;20.80;39.10;;;;;;5016706;28;20092;-50
2020/12/11 00:41:57;;;;;;;1.98;1.88;;;20.80;39.10;;;;;;5022208;28;20032;-49
2020/12/11 00:44:23;;;;;;;1.73;1.60;;;20.80;39.10;;;;;;5018671;28;20030;-48
2020/12/11 00:46:49;;;;;;;2.40;2.20;;;20.70;39.20;;;;;;5012763;28;20069;-48
2020/12/11 00:49:15;;;;;;;3.60;1.75;;;20.70;39.20;;;;;;5021136;28;20029;-48
2020/12/11 00:51:40;;;;;;;2.03;1.63;;;20.70;39.20;;;;;;5004251;28;20083;-48
2020/12/11 00:54:06;;;;;;;4.28;2.33;;;20.70;39.20;;;;;;5018007;28;20380;-49
2020/12/11 00:56:32;;;;;;;3.50;2.42;;;20.70;39.20;;;;;;5007988;28;20053;-49
2020/12/11 00:58:57;;;;;;;2.70;1.98;;;20.70;39.20;;;;;;5018380;28;20029;-47
2020/12/11 01:01:23;;;;;;;2.28;2.08;;;20.60;39.20;;;;;;5022152;28;20033;-48
2020/12/11 01:03:48;;;;;;;2.40;1.67;;;20.70;39.20;;;;;;5012876;28;20425;-50
2020/12/11 01:06:14;;;;;;;1.77;1.63;;;20.60;39.20;;;;;;5007680;28;20030;-49
2020/12/11 01:08:39;;;;;;;2.08;1.48;;;20.60;39.10;;;;;;5012944;28;20029;-49
2020/12/11 01:11:06;;;;;;;2.17;1.73;;;20.60;39.20;;;;;;5009240;28;20030;-48
2020/12/11 01:13:31;;;;;;;2.15;1.85;;;20.60;39.30;;;;;;5038958;22;20016;-47
2020/12/11 01:15:57;;;;;;;1.95;1.73;;;20.50;39.20;;;;;;5025719;28;20033;-45
2020/12/11 01:18:23;;;;;;;2.03;1.80;;;20.50;39.20;;;;;;5027493;28;20426;-45
2020/12/11 01:20:48;;;;;;;2.15;1.83;;;20.50;39.20;;;;;;5030569;28;20167;-45
2020/12/11 01:23:14;;;;;;;2.03;1.60;;;20.50;39.30;;;;;;5029971;28;20040;-46
2020/12/11 01:25:39;;;;;;;2.15;1.88;;;20.50;39.30;;;;;;5027855;28;20045;-46
2020/12/11 01:28:05;;;;;;;3.60;2.05;;;20.50;39.20;;;;;;5033254;28;20037;-45
2020/12/11 01:30:31;;;;;;;1.90;1.70;;;20.50;39.30;;;;;;5030766;28;20076;-45
2020/12/11 01:32:57;;;;;;;1.92;1.70;;;20.50;39.20;;;;;;5041507;28;20031;-45
2020/12/11 01:35:23;;;;;;;1.90;1.80;;;20.50;39.20;;;;;;5030232;28;20421;-46
2020/12/11 01:37:48;;;;;;;1.83;1.58;;;20.40;39.30;;;;;;5040225;28;20109;-47
2020/12/11 01:40:14;;;;;;;2.05;1.85;;;20.40;39.20;;;;;;5034020;28;20049;-46
2020/12/11 01:42:41;;;;;;;2.35;1.85;;;20.40;39.30;;;;;;5045140;28;20076;-47
2020/12/11 01:45:07;;;;;;;1.92;1.83;;;20.40;39.20;;;;;;5033782;28;20040;-46
2020/12/11 01:47:39;;;;;;;2.50;2.30;;;20.40;39.30;;;;;;5032515;28;20041;-47
2020/12/11 01:50:06;;;;;;;2.58;1.90;;;20.30;39.30;;;;;;5027137;28;20030;-46
2020/12/11 01:52:31;;;;;;;2.47;2.13;;;20.30;39.30;;;;;;5023095;28;20055;-46
2020/12/11 01:54:57;;;;;;;1.65;1.55;;;20.30;39.30;;;;;;5032693;28;20092;-46
2020/12/11 01:57:44;;;;;;;1.70;1.45;;;20.30;39.30;;;;;;5032444;28;20028;-45
2020/12/11 02:00:09;;;;;;;1.88;1.77;;;20.30;39.30;;;;;;5015083;28;20029;-46
2020/12/11 02:02:39;;;;;;;1.83;1.52;;;20.30;39.30;;;;;;5031658;28;20551;-46
2020/12/11 02:05:08;;;;;;;2.80;1.83;;;20.30;39.30;;;;;;5038880;28;20025;-47
2020/12/11 02:07:41;;;;;;;1.92;1.33;;;20.30;39.30;;;;;;5029725;28;20087;-44
2020/12/11 02:10:08;;;;;;;2.28;1.70;;;20.20;39.40;;;;;;5038787;28;20097;-45
2020/12/11 02:12:34;;;;;;;1.95;1.55;;;20.20;39.30;;;;;;5032699;28;20532;-44
2020/12/11 02:14:59;;;;;;;1.52;1.42;;;20.20;39.20;;;;;;5044681;28;20034;-44
2020/12/11 02:17:28;;;;;;;2.30;1.80;;;20.20;39.30;;;;;;5031817;28;20100;-44
2020/12/11 02:19:56;;;;;;;2.08;1.73;;;20.20;39.30;;;;;;5032709;28;20105;-44
2020/12/11 02:22:22;;;;;;;2.47;2.20;;;20.20;39.20;;;;;;5032906;28;20029;-44
2020/12/11 02:24:49;;;;;;;2.80;2.08;;;20.10;39.30;;;;;;5028985;28;20120;-44
2020/12/11 02:27:15;;;;;;;2.00;1.80;;;20.20;39.30;;;;;;5031675;28;20087;-44
2020/12/11 02:29:40;;;;;;;3.38;1.80;;;20.20;39.30;;;;;;5025452;28;20040;-44
2020/12/11 02:32:06;;;;;;;3.28;2.25;;;20.20;39.30;;;;;;5031413;28;20029;-44
2020/12/11 02:34:32;;;;;;;2.20;2.00;;;20.10;39.30;;;;;;5030575;28;20036;-43
2020/12/11 02:37:03;;;;;;;1.67;1.52;;;20.10;39.30;;;;;;5033694;28;20079;-44
2020/12/11 02:39:30;;;;;;;3.17;2.15;;;20.10;39.30;;;;;;5031851;28;20582;-43
2020/12/11 02:41:55;;;;;;;1.92;1.80;;;20.10;39.20;;;;;;5031272;28;20160;-44
2020/12/11 02:44:21;;;;;;;2.47;1.88;;;20.10;39.30;;;;;;5031435;28;20108;-43
2020/12/11 02:46:47;;;;;;;2.47;1.60;;;20.10;39.20;;;;;;5032425;28;20034;-45
2020/12/11 02:49:12;;;;;;;2.22;1.80;;;20.10;39.30;;;;;;5031921;28;20571;-43
2020/12/11 02:51:38;;;;;;;2.30;2.05;;;20.10;39.30;;;;;;5030650;28;20033;-44
2020/12/11 02:54:04;;;;;;;2.67;1.70;;;20.10;39.40;;;;;;5036623;28;20079;-44
2020/12/11 02:56:29;;;;;;;2.67;1.67;;;20.00;39.30;;;;;;5030874;28;20057;-45
2020/12/11 02:58:55;;;;;;;1.98;1.65;;;20.00;39.20;;;;;;5035738;28;20526;-44
2020/12/11 03:01:20;;;;;;;2.83;1.60;;;20.10;39.30;;;;;;5030644;28;20577;-44
2020/12/11 03:03:46;;;;;;;1.80;1.58;;;20.00;39.20;;;;;;5034704;28;20096;-43
2020/12/11 03:06:12;;;;;;;2.15;1.80;;;20.00;39.30;;;;;;5031278;28;20399;-46
2020/12/11 03:08:37;;;;;;;3.03;1.83;;;20.00;39.30;;;;;;5035518;28;20040;-44
2020/12/11 03:11:03;;;;;;;2.45;1.65;;;20.00;39.10;;;;;;5036461;28;20029;-44
2020/12/11 03:13:28;;;;;;;1.88;1.67;;;20.00;39.20;;;;;;5034628;28;20379;-44
2020/12/11 03:15:54;;;;;;;2.17;1.73;;;20.00;39.20;;;;;;5030325;28;20025;-44
2020/12/11 03:18:20;;;;;;;2.88;1.50;;;20.00;39.30;;;;;;5016610;28;20056;-45
2020/12/11 03:20:45;;;;;;;1.90;1.65;;;20.00;39.30;;;;;;5027240;28;20057;-44
2020/12/11 03:23:11;;;;;;;1.60;1.40;;;19.90;39.30;;;;;;5028771;28;20045;-44
2020/12/11 03:25:36;;;;;;;3.47;1.60;;;19.90;39.40;;;;;;5029986;28;20029;-44
2020/12/11 03:28:02;;;;;;;1.95;1.67;;;19.90;39.30;;;;;;5031688;28;20029;-43
2020/12/11 03:30:29;;;;;;;1.70;1.52;;;19.90;39.40;;;;;;5014835;28;20156;-45
2020/12/11 03:32:54;;;;;;;2.35;1.85;;;19.90;39.30;;;;;;5031236;28;20033;-44
2020/12/11 03:35:20;;;;;;;1.63;1.10;;;19.90;39.40;;;;;;5031667;28;20017;-44
2020/12/11 03:37:46;;;;;;;1.58;1.48;;;19.90;39.30;;;;;;5031342;28;20025;-44
2020/12/11 03:40:11;;;;;;;2.35;1.55;;;19.90;39.30;;;;;;5031693;28;20128;-44
2020/12/11 03:42:37;;;;;;;2.25;2.05;;;19.90;39.40;;;;;;5031700;28;20072;-45
2020/12/11 03:45:03;;;;;;;1.77;1.52;;;19.90;39.30;;;;;;5034750;28;20057;-46
2020/12/11 03:47:30;;;;;;;1.85;1.73;;;19.90;39.40;;;;;;5030397;28;20037;-44
2020/12/11 03:49:56;;;;;;;1.88;1.60;;;19.80;39.40;;;;;;5040098;28;20028;-45
2020/12/11 03:52:22;;;;;;;2.28;1.38;;;19.80;39.40;;;;;;5022700;28;20046;-43
2020/12/11 03:54:47;;;;;;;2.50;1.65;;;19.80;39.30;;;;;;5030060;28;20064;-43
2020/12/11 03:57:13;;;;;;;1.95;1.55;;;19.80;39.40;;;;;;5029291;28;20044;-44
2020/12/11 03:59:38;;;;;;;1.92;1.63;;;19.80;39.30;;;;;;5031611;28;20064;-44
2020/12/11 04:02:04;;;;;;;1.88;1.70;;;19.80;39.40;;;;;;5029395;28;20025;-45
2020/12/11 04:04:29;;;;;;;2.28;1.73;;;19.80;39.30;;;;;;5037335;28;20037;-45
2020/12/11 04:06:55;;;;;;;1.73;1.50;;;19.80;39.40;;;;;;5030226;28;20025;-44
2020/12/11 04:09:20;;;;;;;1.90;1.58;;;19.70;39.30;;;;;;5030189;28;20033;-44
2020/12/11 04:11:46;;;;;;;2.50;1.92;;;19.70;39.30;;;;;;5034628;28;20044;-43
2020/12/11 04:14:12;;;;;;;2.55;1.55;;;19.80;39.30;;;;;;5033579;28;20037;-44
2020/12/11 04:16:38;;;;;;;2.10;1.63;;;19.70;39.30;;;;;;5038603;28;20037;-43
2020/12/11 04:19:03;;;;;;;2.25;1.13;;;19.70;39.30;;;;;;5035115;28;20033;-44
2020/12/11 04:21:29;;;;;;;2.05;1.65;;;19.70;39.20;;;;;;5038392;28;20040;-44
2020/12/11 04:23:54;;;;;;;1.83;1.73;;;19.70;39.30;;;;;;5028739;28;20033;-45
2020/12/11 04:26:20;;;;;;;1.92;1.83;;;19.70;39.20;;;;;;5028709;28;20108;-44
2020/12/11 04:28:45;;;;;;;2.00;1.80;;;19.70;39.40;;;;;;5017148;28;20036;-44
2020/12/11 04:31:11;;;;;;;1.50;1.40;;;19.70;39.30;;;;;;5029723;28;20498;-44
2020/12/11 04:33:37;;;;;;;3.05;2.15;;;19.70;39.30;;;;;;5034982;28;20079;-42
2020/12/11 04:36:03;;;;;;;1.48;1.38;;;19.70;39.30;;;;;;5030905;28;20099;-45
2020/12/11 04:38:29;;;;;;;2.15;1.48;;;19.60;39.30;;;;;;5011629;28;20239;-44
2020/12/11 04:41:02;;;;;;;1.25;1.15;;;19.60;39.30;;;;;;5042292;28;20417;-43
2020/12/11 04:43:28;;;;;;;1.85;1.38;;;19.60;39.20;;;;;;5029622;28;20041;-44
2020/12/11 04:45:54;;;;;;;2.08;1.88;;;19.60;39.30;;;;;;5041426;28;20086;-44
2020/12/11 04:48:20;;;;;;;1.85;1.35;;;19.60;39.20;;;;;;5036169;28;20086;-43
2020/12/11 04:50:46;;;;;;;1.27;1.10;;;19.60;39.70;;;;;;5011235;28;20124;-44
2020/12/11 04:53:16;;;;;;;2.17;1.98;;;19.60;39.20;;;;;;5033882;28;20033;-44
2020/12/11 04:55:44;;;;;;;1.98;1.55;;;19.60;39.20;;;;;;5023516;28;20387;-45
2020/12/11 04:58:15;;;;;;;1.70;1.42;;;19.60;39.20;;;;;;5015763;28;20024;-43
2020/12/11 05:00:42;;;;;;;2.10;1.65;;;19.60;39.30;;;;;;5023977;28;20037;-46
2020/12/11 05:03:13;;;;;;;1.33;1.15;;;19.60;39.20;;;;;;5031931;28;20036;-45
2020/12/11 05:05:40;;;;;;;2.20;1.70;;;19.60;39.30;;;;;;5020189;28;20088;-44
2020/12/11 05:08:19;;;;;;;1.65;1.48;;;19.50;39.20;;;;;;5003409;28;20029;-46
2020/12/11 05:10:46;;;;;;;2.47;1.52;;;19.50;39.20;;;;;;5035211;28;20504;-44
2020/12/11 05:13:23;;;;;;;1.65;1.45;;;19.50;39.30;;;;;;5035740;28;20037;-45
2020/12/11 05:16:10;;;;;;;2.33;1.60;;;19.50;39.30;;;;;;5031941;28;20155;-44
2020/12/11 05:18:37;;;;;;;1.80;1.70;;;19.50;39.20;;;;;;5036360;28;20037;-45
2020/12/11 05:21:19;;;;;;;1.95;1.73;;;19.50;39.20;;;;;;5026841;28;20578;-45
2020/12/11 05:24:05;;;;;;;2.10;1.30;;;19.50;39.30;;;;;;5039362;28;20047;-45
2020/12/11 05:26:34;;;;;;;2.47;1.40;;;19.50;39.20;;;;;;5033745;28;20115;-45
2020/12/11 05:29:01;;;;;;;1.70;1.50;;;19.50;39.30;;;;;;5038695;28;20025;-43
2020/12/11 05:31:27;;;;;;;1.25;1.10;;;19.50;39.30;;;;;;5036637;28;20017;-45
2020/12/11 05:34:05;;;;;;;2.35;1.60;;;19.50;39.30;;;;;;5032748;28;20108;-46
2020/12/11 05:36:46;;;;;;;1.65;0.95;;;19.50;39.30;;;;;;5035775;28;20060;-44
2020/12/11 05:39:12;;;;;;;1.60;1.25;;;19.40;39.70;;;;;;5029067;28;20032;-45
2020/12/11 05:41:38;;;;;;;1.88;1.48;;;19.40;39.20;;;;;;5037189;28;20041;-45
2020/12/11 05:44:32;;;;;;;1.60;1.20;;;19.40;39.30;;;;;;5032175;28;20038;-46
2020/12/11 05:47:14;;;;;;;1.95;1.45;;;19.40;39.30;;;;;;5039751;28;20498;-46
2020/12/11 05:49:39;;;;;;;1.92;1.55;;;19.40;39.30;;;;;;5032754;28;20108;-46
2020/12/11 05:52:16;;;;;;;1.63;1.17;;;19.40;39.30;;;;;;5034138;28;20155;-45
2020/12/11 05:54:47;;;;;;;1.58;1.40;;;19.40;39.20;;;;;;5031821;28;20079;-46
2020/12/11 05:57:15;;;;;;;1.58;0.90;;;19.40;39.30;;;;;;5017354;28;20018;-45
2020/12/11 05:59:42;;;;;;;1.58;1.48;;;19.40;39.30;;;;;;5033487;28;20105;-46
2020/12/11 06:02:09;;;;;;;1.45;1.33;;;19.40;39.30;;;;;;5013391;28;20032;-46
2020/12/11 06:04:35;;;;;;;1.60;1.20;;;19.40;39.30;;;;;;5032764;28;20036;-45
2020/12/11 06:07:01;;;;;;;1.55;1.15;;;19.30;39.30;;;;;;5033508;28;20838;-48
2020/12/11 06:09:35;;;;;;;1.80;1.30;;;19.30;39.30;;;;;;5033243;28;20036;-43
2020/12/11 06:12:02;;;;;;;1.15;0.95;;;19.30;39.30;;;;;;5042971;28;20094;-44
2020/12/11 06:14:46;;;;;;;1.55;1.20;;;19.40;39.30;;;;;;5037822;28;20406;-45
2020/12/11 06:17:14;;;;;;;1.08;0.93;;;19.30;39.40;;;;;;5029431;28;20030;-46
2020/12/11 06:19:43;;;;;;;1.63;1.00;;;19.20;39.50;;;;;;5032611;28;20025;-46
2020/12/11 06:22:09;;;;;;;1.80;0.90;;;19.30;39.40;;;;;;5037318;28;20040;-46
2020/12/11 06:24:35;;;;;;;1.65;0.80;;;19.40;39.40;;;;;;5043408;28;20040;-46
2020/12/11 06:27:04;;;;;;;2.15;0.82;;;19.50;39.10;;;;;;5020464;28;20196;-45
2020/12/11 06:29:35;;;;;;;0.98;0.50;;;19.70;38.80;;;;;;5032808;28;20727;-45
2020/12/11 06:32:01;;;;;;;1.40;0.85;;;19.80;38.70;;;;;;5034731;28;20827;-45
2020/12/11 06:34:27;;;;;;;1.02;0.65;;;19.90;38.50;;;;;;5031767;28;20025;-45
2020/12/11 06:36:54;;;;;;;0.88;0.57;;;20.00;38.40;;;;;;5035069;28;20026;-46
2020/12/11 06:39:39;;;;;;;1.58;0.75;;;20.10;38.30;;;;;;5031660;28;20026;-46
2020/12/11 06:42:06;;;;;;;0.93;0.65;;;20.10;38.30;;;;;;5042656;28;20132;-46
2020/12/11 06:44:32;;;;;;;2.47;0.60;;;20.20;38.20;;;;;;5034045;28;20029;-45
2020/12/11 06:47:05;;;;;;;1.42;0.75;;;20.20;38.20;;;;;;5031929;28;20660;-46
2020/12/11 06:49:31;;;;;;;1.17;0.70;;;20.20;38.10;;;;;;5033119;28;20100;-46
2020/12/11 06:52:03;;;;;;;1.75;0.70;;;20.20;38.10;;;;;;5031733;28;20116;-45
2020/12/11 06:54:28;;;;;;;0.95;0.60;;;20.30;38.20;;;;;;5030937;28;20395;-46
2020/12/11 06:56:56;;;;;;;0.98;0.73;;;20.30;38.20;;;;;;5031467;28;20035;-46
2020/12/11 06:59:27;;;;;;;0.85;0.52;;;20.30;38.20;;;;;;5031782;28;20029;-45
2020/12/11 07:02:15;;;;;;;1.23;0.57;;;20.20;38.10;;;;;;5036083;28;20086;-47
2020/12/11 07:04:42;;;;;;;1.17;0.50;;;20.30;38.20;;;;;;5029061;28;20375;-46
2020/12/11 07:07:08;;;;;;;0.90;0.50;;;20.30;38.20;;;;;;5030506;28;20036;-46
2020/12/11 07:09:47;;;;;;;1.23;0.60;;;20.40;38.10;;;;;;5032235;28;20037;-46
2020/12/11 07:12:15;;;;;;;1.38;0.55;;;20.50;38.00;;;;;;5031553;28;20025;-47
2020/12/11 07:14:41;;;;;;;1.33;0.68;;;20.50;38.00;;;;;;5030028;28;20029;-44
2020/12/11 07:17:06;;;;;;;0.80;0.60;;;20.50;37.80;;;;;;5031096;28;20052;-45
2020/12/11 07:19:39;;;;;;;0.88;0.70;;;20.60;37.70;;;;;;5030626;28;20057;-46
2020/12/11 07:22:06;;;;;;;1.20;0.80;;;20.60;37.60;;;;;;5026957;28;20394;-46
2020/12/11 07:24:35;;;;;;;1.30;1.13;;;20.60;37.50;;;;;;5031500;28;20065;-46
2020/12/11 07:27:02;;;;;;;3.55;1.05;;;20.60;37.50;;;;;;5030047;28;20025;-46
2020/12/11 07:29:27;;;;;;;1.45;1.35;;;20.60;37.40;;;;;;5033175;28;20060;-46
2020/12/11 07:31:55;;;;;;;1.30;1.08;;;20.60;37.30;;;;;;5035672;28;20489;-46
2020/12/11 07:34:26;;;;;;;2.22;0.73;;;20.60;37.30;;;;;;5032802;28;20060;-46
2020/12/11 07:36:56;;;;;;;2.33;1.15;;;20.50;37.50;;;;;;5030919;28;20033;-46
2020/12/11 07:39:27;;;;;;;1.42;1.13;;;20.50;37.60;;;;;;5038263;28;20064;-47
2020/12/11 07:41:53;;;;;;;1.55;1.15;;;20.50;38.10;;;;;;5032755;28;20040;-47
2020/12/11 07:44:26;;;;;;;1.58;1.05;;;20.50;37.60;;;;;;5031853;28;20063;-46
2020/12/11 07:46:53;;;;;;;1.60;1.40;;;20.40;37.70;;;;;;5033805;28;20028;-47
2020/12/11 07:49:19;;;;;;;2.90;1.38;;;20.30;37.20;;;;;;5031024;28;20085;-46
2020/12/11 07:51:49;;;;;;;3.08;1.05;;;20.30;37.40;;;;;;5040608;28;20068;-48
2020/12/11 07:54:15;;;;;;;1.02;0.75;;;20.30;37.60;;;;;;5015856;28;20057;-49
2020/12/11 07:56:41;;;;;;;1.58;0.77;;;20.40;37.80;;;;;;5035422;28;20044;-47
2020/12/11 07:59:14;;;;;;;1.70;1.50;;;20.30;37.50;;;;;;5030711;28;20051;-48
2020/12/11 08:01:46;;;;;;;1.88;1.35;;;20.20;38.00;;;;;;5031006;28;20036;-48
2020/12/11 08:04:12;;;;;;;;;;;20.10;38.20;;;;;;5034352;28;20021;-49
2020/12/11 08:06:37;;;;;;;1.73;1.45;;;20.10;38.30;;;;;;5034290;28;19916;-49
2020/12/11 08:09:13;;;;;;;1.48;1.05;;;20.10;38.50;;;;;;5029981;28;20028;-48
2020/12/11 08:11:43;;;;;;;1.30;1.00;;;20.00;38.30;;;;;;5034289;28;20069;-48
2020/12/11 08:14:09;;;;;;;1.77;1.40;;;20.00;38.40;;;;;;5031821;28;20103;-49
2020/12/11 08:16:35;;;;;;;1.85;1.20;;;20.00;38.50;;;;;;5030902;28;20037;-50
2020/12/11 08:19:02;;;;;;;2.75;1.60;;;20.10;38.40;;;;;;5034698;28;20021;-48
2020/12/11 08:21:31;;;;;;;1.65;1.30;;;20.20;38.40;;;;;;5030988;28;20034;-49
2020/12/11 08:23:57;;;;;;;1.63;1.30;;;20.20;38.10;;;;;;5015396;28;20025;-49
2020/12/11 08:26:24;;;;;;;1.48;1.38;;;20.40;38.10;;;;;;5029968;28;20035;-49
2020/12/11 08:29:07;;;;;;;1.52;1.23;;;20.50;38.00;;;;;;5033066;28;20034;-45
2020/12/11 08:31:43;;;;;;;2.38;1.60;;;20.60;38.00;;;;;;5015239;28;20033;-46
2020/12/11 08:34:11;;;;;;;1.55;1.30;;;20.70;38.10;;;;;;5031444;28;20038;-47
2020/12/11 08:36:45;;;;;;;2.28;1.40;;;20.80;38.20;;;;;;5030163;28;20698;-48
2020/12/11 08:39:15;;;;;;;1.67;1.52;;;20.80;38.40;;;;;;5029258;28;20030;-48
2020/12/11 08:41:56;;;;;;;2.10;1.58;;;20.90;38.70;;;;;;5004583;28;20442;-49
2020/12/11 08:44:42;;;;;;;2.70;2.03;;;21.00;38.40;;;;;;5026054;28;20143;-48
2020/12/11 08:49:51;;;;;;;2.50;1.75;;;21.00;38.50;;;;;;5003734;28;20080;-47
2020/12/11 08:52:16;;;;;;;1.85;1.58;;;21.10;38.70;;;;;;5028438;28;20030;-51
2020/12/11 08:54:42;;;;;;;1.85;1.75;;;21.10;38.80;;;;;;5032882;28;20036;-50
2020/12/11 08:57:08;;;;;;;1.48;1.20;;;21.20;38.80;;;;;;5030709;28;20040;-45
2020/12/11 08:59:34;;;;;;;2.00;1.50;;;21.30;38.70;;;;;;5012749;28;20049;-48
2020/12/11 09:02:03;;;;;;;2.88;1.73;;;21.30;38.60;;;;;;5030610;28;20021;-47
2020/12/11 09:04:29;;;;;;;2.28;1.65;;;21.30;38.60;;;;;;5010033;28;20037;-49
2020/12/11 09:06:55;;;;;;;3.20;1.75;;;21.30;38.70;;;;;;5024859;28;20048;-48
2020/12/11 09:09:21;;;;;;;1.30;1.20;;;21.30;38.80;;;;;;5011284;28;20032;-47
2020/12/11 09:11:47;;;;;;;1.88;1.20;;;21.30;38.90;;;;;;5029615;28;20040;-48
2020/12/11 09:14:13;;;;;;;1.55;1.42;;;21.30;38.90;;;;;;5028347;28;20105;-47
2020/12/11 09:16:39;;;;;;;2.90;1.50;;;21.30;38.80;;;;;;5031489;28;20116;-46
2020/12/11 09:19:05;;;;;;;2.38;1.40;;;21.20;38.80;;;;;;5031397;28;20087;-46
2020/12/11 09:21:30;;;;;;;1.95;1.35;;;21.20;38.80;;;;;;5028496;28;20038;-45
2020/12/11 09:23:56;;;;;;;2.13;1.25;;;21.20;38.80;;;;;;5029687;28;20030;-45
2020/12/11 09:26:23;;;;;;;1.58;1.35;;;21.20;39.10;;;;;;5011350;28;20033;-47
2020/12/11 09:28:53;;;;;;;1.90;1.40;;;21.20;39.30;;;;;;5029805;28;20093;-47
2020/12/11 09:31:23;;;;;;;2.40;1.35;;;21.20;39.30;;;;;;5029230;28;20038;-45
2020/12/11 09:33:49;;;;;;;1.45;1.10;;;21.20;39.30;;;;;;5030282;28;20017;-47
2020/12/11 09:36:15;;;;;;;1.90;1.15;;;21.10;39.30;;;;;;5030123;28;20029;-45
2020/12/11 09:38:40;;;;;;;2.38;1.35;;;21.10;39.20;;;;;;5027887;28;20087;-43
2020/12/11 09:41:07;;;;;;;1.40;1.20;;;21.10;39.60;;;;;;5029271;28;20034;-45
2020/12/11 09:43:52;;;;;;;1.70;1.33;;;21.10;39.40;;;;;;5009723;28;20168;-46
2020/12/11 09:48:57;;;;;;;1.45;1.35;;;21.00;39.30;;;;;;5029788;28;20022;-46
2020/12/11 09:56:23;;;;;;;1.42;1.25;;;21.00;39.50;;;;;;5030977;28;20540;-48
2020/12/11 09:58:52;;;;;;;1.60;1.30;;;21.10;39.80;;;;;;5033433;28;20025;-47
2020/12/11 10:01:24;;;;;;;2.08;0.80;;;21.10;39.30;;;;;;5034255;28;20033;-46
2020/12/11 10:03:53;;;;;;;1.52;1.20;;;21.10;39.40;;;;;;5032407;28;20478;-46
2020/12/11 10:06:23;;;;;;;1.60;1.17;;;21.30;39.20;;;;;;5033507;28;20060;-48
2020/12/11 10:08:48;;;;;;;2.08;1.08;;;21.30;39.10;;;;;;5028803;28;20400;-45
2020/12/11 10:11:21;;;;;;;1.15;1.00;;;21.20;39.20;;;;;;5038418;28;20045;-47
2020/12/11 10:14:06;;;;;;;1.65;0.95;;;21.30;39.40;;;;;;5034504;28;20045;-41
2020/12/11 10:16:32;;;;;;;2.00;1.08;;;21.30;39.20;;;;;;5033599;28;20047;-47
2020/12/11 10:18:57;;;;;;;2.13;0.93;;;21.50;39.20;;;;;;5035974;28;20034;-47
2020/12/11 10:21:23;;;;;;;2.38;1.10;;;21.60;38.90;;;;;;5032167;28;20047;-47
2020/12/11 10:23:49;;;;;;;1.52;0.77;;;21.60;38.70;;;;;;5032868;28;20104;-47
2020/12/11 10:26:14;;;;;;;1.95;1.15;;;21.60;38.80;;;;;;5032969;28;20447;-49
2020/12/11 10:28:40;;;;;;;1.67;1.35;;;21.60;38.80;;;;;;5033349;28;20087;-45
2020/12/11 10:31:05;;;;;;;1.50;0.70;;;21.60;38.60;;;;;;5033359;28;20083;-51
2020/12/11 10:33:31;;;;;;;1.23;0.88;;;21.60;38.70;;;;;;5035074;28;20121;-48
2020/12/11 10:35:56;;;;;;;1.20;0.93;;;21.60;38.70;;;;;;5032534;28;20029;-46
2020/12/11 10:38:23;;;;;;;1.98;1.08;;;21.60;38.60;;;;;;5030970;28;20030;-47
2020/12/11 10:40:49;;;;;;;1.55;0.80;;;21.60;38.60;;;;;;5033198;28;20462;-47
2020/12/11 10:43:14;;;;;;;2.20;0.90;;;21.60;38.50;;;;;;5032342;28;20112;-49
2020/12/11 10:45:40;;;;;;;1.00;0.80;;;21.60;38.50;;;;;;5030064;28;20108;-49
2020/12/11 10:48:06;;;;;;;1.50;0.60;;;21.60;38.60;;;;;;5032510;28;20041;-51
2020/12/11 10:50:31;;;;;;;1.25;0.90;;;21.60;38.50;;;;;;5031536;28;20052;-49
2020/12/11 10:52:57;;;;;;;1.50;1.05;;;21.60;38.60;;;;;;5037934;28;20029;-45
2020/12/11 10:55:22;;;;;;;1.63;1.00;;;21.60;38.40;;;;;;5032744;28;20025;-50
2020/12/11 10:57:48;;;;;;;1.38;0.88;;;21.70;38.40;;;;;;5045033;28;20143;-47
2020/12/11 11:00:13;;;;;;;2.40;0.90;;;21.70;38.30;;;;;;5032902;28;20037;-48
2020/12/11 11:02:42;;;;;;;1.13;0.80;;;21.70;38.30;;;;;;5036258;28;20033;-44
2020/12/11 11:05:08;;;;;;;0.90;0.65;;;21.70;38.30;;;;;;5031172;28;20029;-46
2020/12/11 11:07:33;;;;;;;1.23;0.80;;;21.70;38.40;;;;;;5013831;28;20413;-44
2020/12/11 11:12:35;;;;;;;1.88;1.40;;;21.60;38.50;;;;;;5030613;28;20108;-44
2020/12/11 11:20:43;;;;;;;2.08;0.90;;;21.50;38.50;;;;;;4966141;28;20110;-43
2020/12/11 11:28:22;;;;;;;2.17;1.17;;;21.40;38.70;;;;;;5030476;28;20394;-45
2020/12/11 11:30:47;;;;;;;1.13;0.98;;;21.40;38.70;;;;;;5030983;28;20029;-44
2020/12/11 11:33:13;;;;;;;1.55;1.02;;;21.40;38.70;;;;;;5030160;28;20034;-44
2020/12/11 11:35:38;;;;;;;2.83;1.38;;;21.30;38.70;;;;;;5042592;28;20035;-46
2020/12/11 11:38:08;;;;;;;2.70;1.73;;;21.30;38.80;;;;;;5013303;28;20550;-44
2020/12/11 11:40:38;;;;;;;2.88;1.65;;;21.30;38.80;;;;;;5039522;28;20123;-44
2020/12/11 11:43:04;;;;;;;1.20;0.82;;;21.20;38.70;;;;;;5038414;28;20057;-44
2020/12/11 11:45:33;;;;;;;2.13;1.42;;;21.20;38.80;;;;;;5029445;28;20069;-44
2020/12/11 11:47:59;;;;;;;1.27;1.02;;;21.20;38.90;;;;;;5030135;28;20029;-43
2020/12/11 11:50:52;;;;;;;1.92;1.45;;;21.20;38.80;;;;;;5031436;28;20375;-44
2020/12/11 11:53:14;;;;;;;2.00;1.20;;;21.10;38.80;;;;;;5030230;28;20041;-46
2020/12/11 11:55:44;;;;;;;1.58;1.02;;;21.10;38.90;;;;;;5028451;28;20021;-43
2020/12/11 11:58:10;;;;;;;1.73;1.30;;;21.10;38.90;;;;;;5030417;28;20494;-45
2020/12/11 12:00:36;;;;;;;1.40;1.00;;;21.00;39.40;;;;;;5030360;28;20037;-45
2020/12/11 12:03:03;;;;;;;1.30;1.15;;;21.00;38.90;;;;;;5035610;28;20055;-45
2020/12/11 12:05:28;;;;;;;2.15;1.20;;;21.10;38.80;;;;;;5029648;28;20647;-45
2020/12/11 12:07:54;;;;;;;1.38;1.15;;;21.10;38.70;;;;;;5030102;28;20025;-46
2020/12/11 12:10:19;;;;;;;1.38;0.98;;;21.20;38.70;;;;;;5032229;28;20112;-44
2020/12/11 12:12:45;;;;;;;1.63;0.70;;;21.30;38.50;;;;;;5033810;28;20077;-44
2020/12/11 12:15:15;;;;;;;1.48;0.90;;;21.40;38.40;;;;;;5029660;28;20064;-45
2020/12/11 12:17:49;;;;;;;1.30;0.77;;;21.40;38.30;;;;;;5018392;28;20032;-45
2020/12/11 12:21:21;;;;;;;1.88;0.82;;;21.50;38.20;;;;;;5031519;28;20021;-47
2020/12/11 12:28:42;;;;;;;2.00;1.08;;;21.50;38.10;;;;;;5029547;28;19921;-45
2020/12/11 12:31:08;;;;;;;1.40;0.90;;;21.60;38.10;;;;;;5033252;28;20025;-45
2020/12/11 12:43:50;;;;;;;2.10;0.60;;;21.60;38.10;;;;;;5008328;28;19915;-46
2020/12/11 12:46:16;;;;;;;1.55;1.02;;;21.60;38.10;;;;;;5032951;28;20026;-43
2020/12/11 12:48:41;;;;;;;1.10;0.77;;;21.60;38.10;;;;;;5011049;28;20163;-44
2020/12/11 12:51:08;;;;;;;1.23;1.05;;;21.60;38.10;;;;;;5027801;28;20521;-44
2020/12/11 12:53:36;;;;;;;1.40;0.80;;;21.70;38.10;;;;;;5024025;28;20065;-44
2020/12/11 12:58:53;;;;;;;1.38;0.82;;;21.70;38.00;;;;;;5027553;28;20418;-44
2020/12/11 13:06:48;;;;;;;;;;;21.60;38.00;;;;;;5024057;28;20044;-44
2020/12/11 13:09:14;;;;;;;1.25;0.88;;;21.60;38.10;;;;;;5032855;28;20004;-46
2020/12/11 13:11:40;;;;;;;1.48;0.82;;;21.60;38.10;;;;;;5030098;28;20036;-44
2020/12/11 13:14:05;;;;;;;1.92;1.27;;;21.60;38.10;;;;;;5029584;28;20107;-46
2020/12/11 13:16:31;;;;;;;1.73;0.90;;;21.60;38.20;;;;;;5010963;28;20040;-45
2020/12/11 13:18:57;;;;;;;1.40;0.80;;;21.50;38.20;;;;;;5027858;28;20422;-44
2020/12/11 13:21:28;;;;;;;2.35;0.90;;;21.50;38.30;;;;;;5030202;28;20433;-44
2020/12/11 13:26:45;;;;;;;2.00;0.98;;;21.40;38.40;;;;;;5029362;28;20030;-45
2020/12/11 13:29:12;;;;;;;1.30;0.90;;;21.40;38.40;;;;;;5029138;28;20033;-45
2020/12/11 13:31:38;;;;;;;1.98;1.10;;;21.30;38.50;;;;;;5028975;28;20038;-44
2020/12/11 13:34:04;;;;;;;1.85;0.90;;;21.30;38.60;;;;;;5034139;28;20026;-45
2020/12/11 13:36:30;;;;;;;1.33;1.00;;;21.30;38.60;;;;;;5027318;28;20048;-44
2020/12/11 13:38:55;;;;;;;2.03;1.63;;;21.20;38.60;;;;;;5038706;28;20028;-45
2020/12/11 13:41:21;;;;;;;2.25;1.95;;;21.30;38.60;;;;;;5036880;28;20030;-43